»·PEaware :: TEXAN22 KRND-KRND

TEXAN22 :: KRND-KRND

FLIGHT INFORMATION

Flight Status: Arrived
Operator: Unknown
More flights by this operator :: More flights under this callsign
Pilot: Indie I. (23343)
Aircraft: BEECH AIRCRAFT T-6A TEXAN
(TEX2)
More flights by this aircraft type
Origin: KRND Randolph AFB
United States
Destination: KRND Randolph AFB
United States
More flights between these airports :: More routes between these airports
Route: KRND KPEZ KRND
File this flight plan on PilotEdge
Remarks: IFR Cancellation for VFR route to KPEZ and VFR recovery
Altitude:
(Current/Filed)
4,500ft
Speed:
(Current/Filed)
200kts
Departed: 03-Sep-20 11:20 AM
Arrived: 03-Sep-20 11:51 AM
Distance/Time
Traveled:
0nm/0:30
Distance/Time
To Go:
Arrived

Flight Plot

Page will automatically refresh every two minutes.

Flight plan parsing failed; only flown route is shown


Map Options




Map Legend


Flown Route
Filed Route
Departure Airport
Arrival Airport
Navaid (VOR, NDB)
Fix

Horizontal Profiles

Position Reports

Time Latitude Longitude Heading Altitude Ground
Speed
03-Sep-20 11:04 29.534625 -98.292989 150 765ft 0kts
03-Sep-20 11:05 29.534625 -98.292989 150 765ft 0kts
03-Sep-20 11:06 29.534623 -98.292987 150 765ft 0kts
03-Sep-20 11:07 29.534620 -98.292986 151 765ft 0kts
03-Sep-20 11:08 29.534618 -98.292984 152 765ft 0kts
03-Sep-20 11:09 29.534833 -98.291761 174 766ft 0kts
03-Sep-20 11:10 29.534833 -98.291761 174 766ft 0kts
03-Sep-20 11:11 29.534833 -98.291761 174 766ft 0kts
03-Sep-20 11:12 29.534831 -98.291761 174 765ft 0kts
03-Sep-20 11:13 29.534829 -98.291761 174 765ft 0kts
03-Sep-20 11:14 29.534827 -98.291761 174 765ft 0kts
03-Sep-20 11:15 29.534825 -98.291760 174 765ft 0kts
03-Sep-20 11:16 29.534823 -98.291760 174 765ft 0kts
03-Sep-20 11:17 29.534819 -98.291760 175 765ft 0kts
03-Sep-20 11:18 29.534756 -98.292256 277 765ft 2kts
03-Sep-20 11:19 29.527564 -98.288506 149 850ft 128kts
03-Sep-20 11:20 29.474200 -98.275652 165 2692ft 216kts
03-Sep-20 11:21 29.412717 -98.243112 160 2904ft 228kts
03-Sep-20 11:22 29.389310 -98.286591 302 2072ft 206kts
03-Sep-20 11:24 29.372868 -98.337022 224 4570ft 223kts
03-Sep-20 11:25 29.332837 -98.393707 228 4453ft 237kts
03-Sep-20 11:26 29.290934 -98.451592 234 4409ft 231kts
03-Sep-20 11:27 29.247623 -98.505837 227 4535ft 233kts
03-Sep-20 11:28 29.203633 -98.559485 230 4613ft 230kts
03-Sep-20 11:29 29.152698 -98.586474 160 4471ft 233kts
03-Sep-20 11:30 29.092279 -98.564570 168 3548ft 236kts
03-Sep-20 11:31 29.032706 -98.547616 161 1765ft 212kts
03-Sep-20 11:32 28.984418 -98.530342 165 1126ft 155kts
03-Sep-20 11:33 28.952642 -98.519563 164 455ft 107kts
03-Sep-20 11:34 28.945656 -98.487183 354 1399ft 228kts
03-Sep-20 11:35 28.981786 -98.519007 242 1137ft 148kts
03-Sep-20 11:36 28.952384 -98.519377 163 505ft 118kts
03-Sep-20 11:37 28.964148 -98.483720 23 2793ft 202kts
03-Sep-20 11:38 29.022506 -98.472329 359 3633ft 226kts
03-Sep-20 11:39 29.085382 -98.463137 18 3480ft 226kts
03-Sep-20 11:39 29.135371 -98.445606 20 3413ft 229kts
03-Sep-20 11:41 29.204896 -98.419482 18 3418ft 229kts
03-Sep-20 11:42 29.264740 -98.397382 12 3414ft 227kts
03-Sep-20 11:43 29.322224 -98.369355 24 3359ft 221kts
03-Sep-20 11:43 29.368066 -98.350694 14 2084ft 203kts
03-Sep-20 11:44 29.424198 -98.330799 18 1773ft 229kts
03-Sep-20 11:45 29.482310 -98.330799 328 1778ft 217kts
03-Sep-20 11:47 29.548355 -98.340641 328 1810ft 216kts
03-Sep-20 11:47 29.550479 -98.303911 147 1749ft 214kts
03-Sep-20 11:48 29.530213 -98.305297 325 1707ft 149kts
03-Sep-20 11:49 29.539729 -98.296238 146 882ft 120kts
03-Sep-20 11:50 29.523647 -98.285690 151 765ft 32kts
03-Sep-20 11:51 29.524719 -98.283739 40 765ft 9kts
03-Sep-20 11:52 29.526064 -98.284366 331 765ft 7kts
03-Sep-20 11:53 29.526093 -98.284757 239 765ft 0kts
03-Sep-20 11:54 29.526093 -98.284757 239 765ft 0kts

Navigation Log

Ident Type
Flight plan parsing failed, navigation log unavailable